This is the latest recevied weather packets stored in our database for station/object EA3KZ-1. If no packets are shown the sender has not sent any weather packets the latest 10 day(s).
| Time | Temp. | Humidity | Pressure | Rain* | Wind** | Luminosity | Snow |
|---|---|---|---|---|---|---|---|
| 1777962655 | 15° C | 75% | 1006.9 hPa | 0 mm | - | - | - |
| 1777962052 | 13.33° C | 79% | 1006.7 hPa | 0 mm | - | - | - |
| 1777961449 | 12.78° C | 80% | 1007 hPa | 0 mm | - | - | - |
| 1777960847 | 12.22° C | 83% | 1007 hPa | 0 mm | - | - | - |
| 1777960244 | 11.67° C | 83% | 1007.2 hPa | 0 mm | - | - | - |
| 1777959641 | 11.67° C | 82% | 1007.2 hPa | 0 mm | - | - | - |
| 1777959039 | 12.22° C | 81% | 1006.8 hPa | 0 mm | - | - | - |
| 1777958436 | 11.67° C | 85% | 1006.8 hPa | 0 mm | - | - | - |
| 1777957834 | 11.11° C | 86% | 1006.8 hPa | 0 mm | - | - | - |
| 1777957231 | 10.56° C | 88% | 1006.9 hPa | 0 mm | - | - | - |
| 1777956628 | 10° C | 88% | 1007 hPa | 0 mm | - | - | - |
| 1777956026 | 10.56° C | 88% | 1007 hPa | 0 mm | - | - | - |
| 1777955423 | 10° C | 89% | 1007 hPa | 0 mm | - | - | - |
| 1777954821 | 10.56° C | 89% | 1007.1 hPa | 0 mm | - | - | - |
| 1777954218 | 10.56° C | 89% | 1007.1 hPa | 0 mm | - | - | - |
| 1777953615 | 10.56° C | 88% | 1007.1 hPa | 0 mm | - | - | - |
| 1777953073 | 11.11° C | 86% | 1007 hPa | 0 mm | - | - | - |
| 1777952471 | 11.67° C | 84% | 1007 hPa | 0 mm | - | - | - |
| 1777951867 | 11.67° C | 85% | 1007 hPa | 0 mm | - | - | - |
| 1777951265 | 11.67° C | 86% | 1007 hPa | 0 mm | - | - | - |
| 1777950662 | 11.67° C | 86% | 1007 hPa | 0 mm | - | - | - |
| 1777950060 | 12.22° C | 84% | 1007 hPa | 0 mm | - | - | - |
| 1777949457 | 12.22° C | 82% | 1006.8 hPa | 0 mm | - | - | - |
| 1777948854 | 12.78° C | 81% | 1006.9 hPa | 0 mm | - | - | - |
| 1777948252 | 12.78° C | 82% | 1007.1 hPa | 0 mm | - | - | - |
* Rain latest hour (hover to see other rain measurements)
** Current wind speed in m/s (hover to see current wind gust speed)